CES5396 ZHCC-ZSSS
Flight info
| Callsign | CES5396 |
|---|---|
| Flight time | 1h 9m |
| Altitude | 31100 |
| Route | RUM9X RUMGU W594 EPGOS W128 FYG B208 HFE R343 SASAN SAS61A |
| Aircraft | B738/M-SDE2E3FGHIRWXY/LB1 |
Departure
| Time | 2026-05-04 18:17 |
|---|---|
| Airport | Zhengzhou Xinzheng International Airport (ZHCC) |
Arrival
| Time | 2026-05-04 19:26 |
|---|---|
| Airport | Shanghai Hongqiao International Airport (ZSSS) |
| Time | Latitude | Longitude | Altitude | Speed | Heading |
|---|---|---|---|---|---|
| 2026-05-04 17:53 | 34.52390 | 113.84779 | 504 ft | 0 kts | 22° |
| 2026-05-04 18:03 | 34.52389 | 113.84778 | 504 ft | 2 kts | 22° |
| 2026-05-04 18:04 | 34.52366 | 113.84767 | 504 ft | 2 kts | 22° |
| 2026-05-04 18:04 | 34.52346 | 113.84762 | 504 ft | 4 kts | 332° |
| 2026-05-04 18:04 | 34.52320 | 113.84805 | 504 ft | 0 kts | 292° |
| 2026-05-04 18:08 | 34.52329 | 113.84780 | 504 ft | 9 kts | 293° |
| 2026-05-04 18:08 | 34.52330 | 113.84701 | 504 ft | 9 kts | 221° |
| 2026-05-04 18:08 | 34.52237 | 113.84650 | 504 ft | 21 kts | 202° |
| 2026-05-04 18:08 | 34.52085 | 113.84574 | 504 ft | 19 kts | 202° |
| 2026-05-04 18:09 | 34.52084 | 113.84450 | 504 ft | 9 kts | 293° |
| 2026-05-04 18:09 | 34.52173 | 113.84187 | 504 ft | 26 kts | 292° |
| 2026-05-04 18:10 | 34.52253 | 113.83952 | 504 ft | 34 kts | 293° |
| 2026-05-04 18:10 | 34.52350 | 113.83668 | 504 ft | 37 kts | 292° |
| 2026-05-04 18:10 | 34.52446 | 113.83385 | 504 ft | 35 kts | 292° |
| 2026-05-04 18:10 | 34.52452 | 113.83369 | 504 ft | 35 kts | 292° |
| 2026-05-04 18:11 | 34.52504 | 113.83217 | 504 ft | 33 kts | 292° |
| 2026-05-04 18:11 | 34.52587 | 113.82970 | 504 ft | 30 kts | 292° |
| 2026-05-04 18:12 | 34.52665 | 113.82742 | 504 ft | 28 kts | 292° |
| 2026-05-04 18:12 | 34.52726 | 113.82556 | 504 ft | 18 kts | 277° |
| 2026-05-04 18:12 | 34.52676 | 113.82494 | 504 ft | 11 kts | 202° |
| 2026-05-04 18:12 | 34.52609 | 113.82462 | 504 ft | 10 kts | 202° |
| 2026-05-04 18:13 | 34.52543 | 113.82437 | 503 ft | 10 kts | 167° |
| 2026-05-04 18:13 | 34.52492 | 113.82493 | 503 ft | 10 kts | 123° |
| 2026-05-04 18:13 | 34.52484 | 113.82511 | 503 ft | 0 kts | 114° |
| 2026-05-04 18:16 | 34.52471 | 113.82548 | 503 ft | 21 kts | 113° |
| 2026-05-04 18:16 | 34.52318 | 113.83000 | 504 ft | 94 kts | 112° |
| 2026-05-04 18:17 | 34.51524 | 113.85368 | 752 ft | 186 kts | 112° |
| 2026-05-04 18:17 | 34.50993 | 113.86765 | 1542 ft | 181 kts | 121° |
| 2026-05-04 18:17 | 34.49344 | 113.88817 | 2841 ft | 175 kts | 141° |
| 2026-05-04 18:18 | 34.48385 | 113.89877 | 2994 ft | 202 kts | 141° |
| 2026-05-04 18:18 | 34.47300 | 113.91094 | 3033 ft | 221 kts | 140° |
| 2026-05-04 18:18 | 34.46136 | 113.92416 | 3013 ft | 238 kts | 140° |
| 2026-05-04 18:18 | 34.44908 | 113.93827 | 3117 ft | 248 kts | 140° |
| 2026-05-04 18:19 | 34.42403 | 113.96716 | 4282 ft | 249 kts | 139° |
| 2026-05-04 18:19 | 34.41156 | 113.98184 | 4812 ft | 252 kts | 135° |
| 2026-05-04 18:19 | 34.40162 | 113.99948 | 5341 ft | 256 kts | 121° |
| 2026-05-04 18:20 | 34.39302 | 114.01835 | 5877 ft | 257 kts | 121° |
| 2026-05-04 18:20 | 34.38428 | 114.03710 | 6351 ft | 260 kts | 121° |
| 2026-05-04 18:20 | 34.37519 | 114.05637 | 6883 ft | 260 kts | 121° |
| 2026-05-04 18:20 | 34.36606 | 114.07549 | 7326 ft | 265 kts | 121° |
| 2026-05-04 18:21 | 34.35685 | 114.09478 | 7845 ft | 265 kts | 121° |
| 2026-05-04 18:21 | 34.34754 | 114.11413 | 8343 ft | 267 kts | 121° |
| 2026-05-04 18:21 | 34.33815 | 114.13359 | 8795 ft | 269 kts | 121° |
| 2026-05-04 18:21 | 34.32863 | 114.15325 | 9251 ft | 271 kts | 121° |
| 2026-05-04 18:22 | 34.31908 | 114.17297 | 9728 ft | 271 kts | 121° |
| 2026-05-04 18:22 | 34.30953 | 114.19268 | 9831 ft | 272 kts | 121° |
| 2026-05-04 18:22 | 34.29996 | 114.21239 | 9852 ft | 272 kts | 121° |
| 2026-05-04 18:22 | 34.29036 | 114.23215 | 9857 ft | 273 kts | 121° |
| 2026-05-04 18:23 | 34.28074 | 114.25197 | 9861 ft | 273 kts | 121° |
| 2026-05-04 18:23 | 34.27112 | 114.27175 | 9860 ft | 273 kts | 121° |
| 2026-05-04 18:23 | 34.26148 | 114.29158 | 9861 ft | 274 kts | 121° |
| 2026-05-04 18:23 | 34.25185 | 114.31137 | 9861 ft | 273 kts | 121° |
| 2026-05-04 18:24 | 34.24216 | 114.33115 | 9856 ft | 273 kts | 121° |
| 2026-05-04 18:24 | 34.23252 | 114.35087 | 9853 ft | 272 kts | 121° |
| 2026-05-04 18:24 | 34.22278 | 114.37048 | 9852 ft | 272 kts | 125° |
| 2026-05-04 18:24 | 34.20898 | 114.38543 | 9976 ft | 267 kts | 156° |
| 2026-05-04 18:25 | 34.19158 | 114.39375 | 10366 ft | 271 kts | 159° |
| 2026-05-04 18:25 | 34.17404 | 114.40238 | 10803 ft | 273 kts | 158° |
| 2026-05-04 18:25 | 34.15646 | 114.41120 | 11268 ft | 274 kts | 158° |
| 2026-05-04 18:25 | 34.13880 | 114.42003 | 11732 ft | 275 kts | 158° |
| 2026-05-04 18:26 | 34.12105 | 114.42890 | 12195 ft | 277 kts | 158° |
| 2026-05-04 18:26 | 34.10318 | 114.43781 | 12647 ft | 279 kts | 158° |
| 2026-05-04 18:26 | 34.08517 | 114.44679 | 13073 ft | 281 kts | 158° |
| 2026-05-04 18:26 | 34.06699 | 114.45585 | 13516 ft | 284 kts | 158° |
| 2026-05-04 18:27 | 34.04881 | 114.46490 | 13914 ft | 290 kts | 158° |
| 2026-05-04 18:27 | 34.02925 | 114.47464 | 14002 ft | 311 kts | 158° |
| 2026-05-04 18:27 | 34.00881 | 114.48481 | 14134 ft | 333 kts | 158° |
| 2026-05-04 18:27 | 33.98680 | 114.49573 | 14326 ft | 355 kts | 158° |
| 2026-05-04 18:28 | 33.96317 | 114.50747 | 14489 ft | 375 kts | 158° |
| 2026-05-04 18:28 | 33.93839 | 114.51976 | 14638 ft | 394 kts | 158° |
| 2026-05-04 18:28 | 33.91247 | 114.53265 | 14768 ft | 412 kts | 158° |
| 2026-05-04 18:28 | 33.88561 | 114.54596 | 15084 ft | 422 kts | 158° |
| 2026-05-04 18:29 | 33.85835 | 114.55945 | 15584 ft | 426 kts | 158° |
| 2026-05-04 18:29 | 33.83088 | 114.57305 | 16126 ft | 428 kts | 158° |
| 2026-05-04 18:29 | 33.80319 | 114.58675 | 16637 ft | 431 kts | 158° |
| 2026-05-04 18:29 | 33.77534 | 114.60052 | 17108 ft | 435 kts | 158° |
| 2026-05-04 18:30 | 33.71891 | 114.62840 | 18005 ft | 442 kts | 158° |
| 2026-05-04 18:30 | 33.69035 | 114.64249 | 18477 ft | 445 kts | 158° |
| 2026-05-04 18:30 | 33.66164 | 114.65663 | 18915 ft | 448 kts | 158° |
| 2026-05-04 18:31 | 33.63262 | 114.67063 | 19353 ft | 451 kts | 159° |
| 2026-05-04 18:31 | 33.60367 | 114.68435 | 19771 ft | 453 kts | 159° |
| 2026-05-04 18:31 | 33.57389 | 114.69841 | 20193 ft | 456 kts | 159° |
| 2026-05-04 18:31 | 33.54502 | 114.71208 | 20584 ft | 459 kts | 159° |
| 2026-05-04 18:32 | 33.51449 | 114.72655 | 20970 ft | 462 kts | 159° |
| 2026-05-04 18:32 | 33.48510 | 114.74230 | 21312 ft | 466 kts | 149° |
| 2026-05-04 18:32 | 33.46043 | 114.76742 | 21650 ft | 469 kts | 129° |
| 2026-05-04 18:32 | 33.44075 | 114.79848 | 22108 ft | 469 kts | 128° |
| 2026-05-04 18:33 | 33.42016 | 114.82896 | 22385 ft | 473 kts | 130° |
| 2026-05-04 18:33 | 33.39868 | 114.85899 | 22669 ft | 476 kts | 131° |
| 2026-05-04 18:33 | 33.37687 | 114.88891 | 22966 ft | 479 kts | 131° |
| 2026-05-04 18:33 | 33.35491 | 114.91897 | 23298 ft | 480 kts | 131° |
| 2026-05-04 18:34 | 33.33292 | 114.94911 | 23616 ft | 482 kts | 131° |
| 2026-05-04 18:34 | 33.31087 | 114.97943 | 23908 ft | 484 kts | 131° |
| 2026-05-04 18:34 | 33.28873 | 115.00994 | 24173 ft | 487 kts | 131° |
| 2026-05-04 18:34 | 33.26650 | 115.04061 | 24431 ft | 489 kts | 131° |
| 2026-05-04 18:35 | 33.25249 | 115.05995 | 24612 ft | 490 kts | 131° |
| 2026-05-04 18:35 | 33.24282 | 115.07328 | 24741 ft | 491 kts | 131° |
| 2026-05-04 18:35 | 33.24117 | 115.07557 | 24763 ft | 491 kts | 131° |
| 2026-05-04 18:36 | 33.23822 | 115.07964 | 24801 ft | 491 kts | 131° |
| 2026-05-04 18:36 | 33.21580 | 115.11056 | 25084 ft | 493 kts | 131° |
| 2026-05-04 18:36 | 33.19333 | 115.14153 | 25344 ft | 494 kts | 131° |
| 2026-05-04 18:36 | 33.17077 | 115.17258 | 25593 ft | 496 kts | 131° |
| 2026-05-04 18:37 | 33.14815 | 115.20370 | 25830 ft | 498 kts | 131° |
| 2026-05-04 18:37 | 33.12574 | 115.23451 | 26033 ft | 499 kts | 131° |
| 2026-05-04 18:37 | 33.10297 | 115.26576 | 26246 ft | 499 kts | 131° |
| 2026-05-04 18:37 | 33.08019 | 115.29701 | 26490 ft | 499 kts | 131° |
| 2026-05-04 18:38 | 33.05748 | 115.32815 | 26774 ft | 498 kts | 131° |
| 2026-05-04 18:38 | 33.03478 | 115.35925 | 27064 ft | 497 kts | 131° |
| 2026-05-04 18:38 | 33.01211 | 115.39027 | 27352 ft | 496 kts | 131° |
| 2026-05-04 18:38 | 32.98981 | 115.42151 | 27623 ft | 495 kts | 128° |
| 2026-05-04 18:39 | 32.97090 | 115.45582 | 27877 ft | 495 kts | 118° |
| 2026-05-04 18:39 | 32.95693 | 115.49317 | 28167 ft | 494 kts | 109° |
| 2026-05-04 18:39 | 32.94578 | 115.53185 | 28485 ft | 493 kts | 109° |
| 2026-05-04 18:39 | 32.93430 | 115.57031 | 28765 ft | 493 kts | 110° |
| 2026-05-04 18:40 | 32.92646 | 115.59568 | 28974 ft | 492 kts | 110° |
| 2026-05-04 18:40 | 32.91445 | 115.63378 | 29281 ft | 491 kts | 111° |
| 2026-05-04 18:40 | 32.89831 | 115.68461 | 29655 ft | 491 kts | 111° |
| 2026-05-04 18:40 | 32.89005 | 115.70963 | 29831 ft | 490 kts | 114° |
| 2026-05-04 18:41 | 32.86775 | 115.75673 | 30228 ft | 488 kts | 127° |
| 2026-05-04 18:41 | 32.85368 | 115.77748 | 30428 ft | 487 kts | 131° |
| 2026-05-04 18:41 | 32.83141 | 115.80781 | 30680 ft | 487 kts | 131° |
| 2026-05-04 18:41 | 32.80930 | 115.83837 | 30870 ft | 488 kts | 131° |
| 2026-05-04 18:42 | 32.78738 | 115.86913 | 31071 ft | 488 kts | 131° |
| 2026-05-04 18:42 | 32.74364 | 115.93120 | 31080 ft | 489 kts | 130° |
| 2026-05-04 18:43 | 32.70020 | 115.99302 | 31088 ft | 487 kts | 130° |
| 2026-05-04 18:43 | 32.65675 | 116.05467 | 31088 ft | 486 kts | 131° |
| 2026-05-04 18:44 | 32.61328 | 116.11617 | 31093 ft | 487 kts | 131° |
| 2026-05-04 18:44 | 32.56974 | 116.17769 | 31088 ft | 487 kts | 131° |
| 2026-05-04 18:45 | 32.52655 | 116.23963 | 31092 ft | 488 kts | 130° |
| 2026-05-04 18:45 | 32.48371 | 116.30197 | 31090 ft | 488 kts | 130° |
| 2026-05-04 18:46 | 32.44083 | 116.36424 | 31094 ft | 488 kts | 130° |
| 2026-05-04 18:46 | 32.39783 | 116.42641 | 31097 ft | 488 kts | 130° |
| 2026-05-04 18:47 | 32.35475 | 116.48846 | 31093 ft | 488 kts | 130° |
| 2026-05-04 18:47 | 32.31165 | 116.55050 | 31089 ft | 488 kts | 130° |
| 2026-05-04 18:48 | 32.26853 | 116.61250 | 31089 ft | 488 kts | 130° |
| 2026-05-04 18:48 | 32.22566 | 116.67401 | 31091 ft | 488 kts | 130° |
| 2026-05-04 18:49 | 32.18246 | 116.73589 | 31089 ft | 488 kts | 131° |
| 2026-05-04 18:49 | 32.13866 | 116.79711 | 31092 ft | 488 kts | 131° |
| 2026-05-04 18:50 | 32.09460 | 116.85814 | 31093 ft | 489 kts | 131° |
| 2026-05-04 18:50 | 32.05057 | 116.91922 | 31090 ft | 489 kts | 131° |
| 2026-05-04 18:51 | 32.00656 | 116.98033 | 31089 ft | 489 kts | 131° |
| 2026-05-04 18:51 | 31.96245 | 117.04151 | 31090 ft | 490 kts | 132° |
| 2026-05-04 18:52 | 31.91841 | 117.10286 | 31100 ft | 491 kts | 132° |
| 2026-05-04 18:52 | 31.87428 | 117.16429 | 31092 ft | 492 kts | 132° |
| 2026-05-04 18:53 | 31.83004 | 117.22574 | 31090 ft | 492 kts | 132° |
| 2026-05-04 18:53 | 31.78877 | 117.28997 | 31082 ft | 496 kts | 118° |
| 2026-05-04 18:53 | 31.77588 | 117.32758 | 31102 ft | 498 kts | 107° |
| 2026-05-04 18:54 | 31.76874 | 117.36746 | 31084 ft | 500 kts | 97° |
| 2026-05-04 18:54 | 31.76383 | 117.44897 | 31087 ft | 501 kts | 94° |
| 2026-05-04 18:55 | 31.75906 | 117.53061 | 31089 ft | 501 kts | 95° |
| 2026-05-04 18:55 | 31.75073 | 117.65288 | 31095 ft | 500 kts | 95° |
| 2026-05-04 18:56 | 31.74489 | 117.73426 | 31097 ft | 500 kts | 95° |
| 2026-05-04 18:56 | 31.73909 | 117.81502 | 31101 ft | 499 kts | 95° |
| 2026-05-04 18:57 | 31.73323 | 117.89627 | 31099 ft | 500 kts | 95° |
| 2026-05-04 18:57 | 31.72731 | 117.97755 | 31097 ft | 499 kts | 96° |
| 2026-05-04 18:58 | 31.72135 | 118.05871 | 31107 ft | 499 kts | 96° |
| 2026-05-04 18:58 | 31.71541 | 118.13990 | 31111 ft | 499 kts | 95° |
| 2026-05-04 18:59 | 31.70976 | 118.22110 | 31109 ft | 499 kts | 95° |
| 2026-05-04 18:59 | 31.70414 | 118.30236 | 31114 ft | 499 kts | 95° |
| 2026-05-04 19:00 | 31.69842 | 118.38376 | 30963 ft | 503 kts | 95° |
| 2026-05-04 19:00 | 31.69549 | 118.42482 | 30617 ft | 505 kts | 95° |
| 2026-05-04 19:00 | 31.69257 | 118.46574 | 30294 ft | 501 kts | 96° |
| 2026-05-04 19:01 | 31.68965 | 118.50646 | 29977 ft | 500 kts | 96° |
| 2026-05-04 19:01 | 31.68672 | 118.54716 | 29656 ft | 501 kts | 95° |
| 2026-05-04 19:01 | 31.68378 | 118.58796 | 29336 ft | 502 kts | 96° |
| 2026-05-04 19:01 | 31.68080 | 118.62873 | 29014 ft | 502 kts | 96° |
| 2026-05-04 19:02 | 31.67780 | 118.66964 | 28698 ft | 503 kts | 96° |
| 2026-05-04 19:02 | 31.67480 | 118.71052 | 28374 ft | 503 kts | 96° |
| 2026-05-04 19:02 | 31.67177 | 118.75147 | 28049 ft | 504 kts | 96° |
| 2026-05-04 19:02 | 31.66874 | 118.79243 | 27723 ft | 504 kts | 96° |
| 2026-05-04 19:03 | 31.66568 | 118.83346 | 27406 ft | 505 kts | 95° |
| 2026-05-04 19:03 | 31.66262 | 118.87451 | 27081 ft | 505 kts | 95° |
| 2026-05-04 19:03 | 31.65954 | 118.91555 | 26759 ft | 506 kts | 95° |
| 2026-05-04 19:03 | 31.65644 | 118.95674 | 26438 ft | 506 kts | 95° |
| 2026-05-04 19:04 | 31.65333 | 118.99788 | 26114 ft | 507 kts | 95° |
| 2026-05-04 19:04 | 31.65012 | 119.03910 | 25792 ft | 508 kts | 96° |
| 2026-05-04 19:04 | 31.64731 | 119.07986 | 25471 ft | 508 kts | 94° |
| 2026-05-04 19:04 | 31.64566 | 119.12056 | 25157 ft | 507 kts | 92° |
| 2026-05-04 19:05 | 31.64407 | 119.16256 | 24824 ft | 506 kts | 93° |
| 2026-05-04 19:05 | 31.64235 | 119.20359 | 24500 ft | 504 kts | 93° |
| 2026-05-04 19:05 | 31.64049 | 119.24461 | 24170 ft | 500 kts | 93° |
| 2026-05-04 19:05 | 31.63858 | 119.28513 | 23844 ft | 496 kts | 93° |
| 2026-05-04 19:06 | 31.63670 | 119.32536 | 23515 ft | 492 kts | 93° |
| 2026-05-04 19:06 | 31.63483 | 119.36528 | 23192 ft | 488 kts | 93° |
| 2026-05-04 19:06 | 31.63297 | 119.40488 | 22866 ft | 485 kts | 93° |
| 2026-05-04 19:06 | 31.63111 | 119.44427 | 22542 ft | 482 kts | 93° |
| 2026-05-04 19:07 | 31.62923 | 119.48339 | 22218 ft | 479 kts | 93° |
| 2026-05-04 19:07 | 31.62735 | 119.52238 | 21895 ft | 477 kts | 93° |
| 2026-05-04 19:07 | 31.62547 | 119.56120 | 21569 ft | 475 kts | 93° |
| 2026-05-04 19:07 | 31.62359 | 119.59982 | 21247 ft | 473 kts | 93° |
| 2026-05-04 19:08 | 31.62171 | 119.63825 | 20931 ft | 471 kts | 93° |
| 2026-05-04 19:08 | 31.61983 | 119.67655 | 20599 ft | 469 kts | 93° |
| 2026-05-04 19:08 | 31.61802 | 119.71473 | 20275 ft | 467 kts | 93° |
| 2026-05-04 19:08 | 31.61626 | 119.75275 | 19950 ft | 465 kts | 93° |
| 2026-05-04 19:09 | 31.61454 | 119.79035 | 19757 ft | 463 kts | 93° |
| 2026-05-04 19:09 | 31.61280 | 119.82818 | 19736 ft | 462 kts | 93° |
| 2026-05-04 19:09 | 31.61106 | 119.86578 | 19728 ft | 461 kts | 93° |
| 2026-05-04 19:09 | 31.60931 | 119.90335 | 19722 ft | 461 kts | 93° |
| 2026-05-04 19:10 | 31.60751 | 119.94094 | 19725 ft | 461 kts | 93° |
| 2026-05-04 19:10 | 31.60572 | 119.97852 | 19726 ft | 461 kts | 93° |
| 2026-05-04 19:10 | 31.60394 | 120.01577 | 19711 ft | 462 kts | 93° |
| 2026-05-04 19:10 | 31.60212 | 120.05373 | 19387 ft | 461 kts | 93° |
| 2026-05-04 19:11 | 31.60030 | 120.09116 | 18854 ft | 457 kts | 93° |
| 2026-05-04 19:11 | 31.59849 | 120.12813 | 18176 ft | 452 kts | 93° |
| 2026-05-04 19:11 | 31.59669 | 120.16473 | 17456 ft | 447 kts | 93° |
| 2026-05-04 19:11 | 31.59490 | 120.20090 | 16746 ft | 442 kts | 93° |
| 2026-05-04 19:12 | 31.59313 | 120.23668 | 16021 ft | 438 kts | 93° |
| 2026-05-04 19:12 | 31.58958 | 120.30720 | 14580 ft | 428 kts | 94° |
| 2026-05-04 19:12 | 31.58525 | 120.34158 | 13823 ft | 426 kts | 105° |
| 2026-05-04 19:13 | 31.57533 | 120.37391 | 13335 ft | 415 kts | 112° |
| 2026-05-04 19:13 | 31.56476 | 120.40503 | 12765 ft | 407 kts | 111° |
| 2026-05-04 19:13 | 31.55480 | 120.43594 | 12190 ft | 402 kts | 110° |
| 2026-05-04 19:13 | 31.54526 | 120.46679 | 12020 ft | 405 kts | 109° |
| 2026-05-04 19:14 | 31.53585 | 120.49795 | 11900 ft | 405 kts | 109° |
| 2026-05-04 19:14 | 31.52656 | 120.52901 | 11810 ft | 404 kts | 109° |
| 2026-05-04 19:14 | 31.51730 | 120.56008 | 11405 ft | 403 kts | 109° |
| 2026-05-04 19:14 | 31.50842 | 120.58988 | 11048 ft | 399 kts | 109° |
| 2026-05-04 19:15 | 31.49898 | 120.62157 | 10649 ft | 398 kts | 109° |
| 2026-05-04 19:15 | 31.48992 | 120.65192 | 10284 ft | 397 kts | 109° |
| 2026-05-04 19:15 | 31.48074 | 120.68255 | 9915 ft | 396 kts | 109° |
| 2026-05-04 19:15 | 31.47168 | 120.71280 | 9547 ft | 395 kts | 109° |
| 2026-05-04 19:16 | 31.46270 | 120.74280 | 9168 ft | 392 kts | 109° |
| 2026-05-04 19:16 | 31.45373 | 120.77266 | 8786 ft | 383 kts | 109° |
| 2026-05-04 19:16 | 31.44501 | 120.80168 | 8404 ft | 373 kts | 109° |
| 2026-05-04 19:16 | 31.43651 | 120.82998 | 8022 ft | 364 kts | 109° |
| 2026-05-04 19:17 | 31.42823 | 120.85751 | 7648 ft | 356 kts | 109° |
| 2026-05-04 19:17 | 31.42010 | 120.88452 | 7271 ft | 349 kts | 109° |
| 2026-05-04 19:17 | 31.41211 | 120.91105 | 6896 ft | 342 kts | 109° |
| 2026-05-04 19:17 | 31.40428 | 120.93700 | 6521 ft | 336 kts | 109° |
| 2026-05-04 19:18 | 31.39790 | 120.96304 | 6131 ft | 331 kts | 99° |
| 2026-05-04 19:18 | 31.39614 | 120.98959 | 5933 ft | 321 kts | 92° |
| 2026-05-04 19:18 | 31.39518 | 121.01511 | 5894 ft | 306 kts | 93° |
| 2026-05-04 19:18 | 31.39394 | 121.03943 | 5828 ft | 294 kts | 94° |
| 2026-05-04 19:19 | 31.39255 | 121.06311 | 5615 ft | 289 kts | 94° |
| 2026-05-04 19:19 | 31.39109 | 121.08629 | 5396 ft | 283 kts | 94° |
| 2026-05-04 19:19 | 31.38960 | 121.10899 | 5204 ft | 277 kts | 95° |
| 2026-05-04 19:19 | 31.38808 | 121.13108 | 4938 ft | 270 kts | 95° |
| 2026-05-04 19:20 | 31.38661 | 121.15305 | 4461 ft | 270 kts | 95° |
| 2026-05-04 19:20 | 31.38515 | 121.17484 | 4046 ft | 268 kts | 95° |
| 2026-05-04 19:20 | 31.38369 | 121.19585 | 3629 ft | 267 kts | 95° |
| 2026-05-04 19:20 | 31.38221 | 121.21804 | 3203 ft | 265 kts | 95° |
| 2026-05-04 19:21 | 31.38184 | 121.23952 | 2777 ft | 264 kts | 91° |
| 2026-05-04 19:21 | 31.38213 | 121.26066 | 2593 ft | 251 kts | 90° |
| 2026-05-04 19:21 | 31.38238 | 121.28030 | 2621 ft | 233 kts | 91° |
| 2026-05-04 19:21 | 31.38255 | 121.29852 | 2627 ft | 215 kts | 91° |
| 2026-05-04 19:22 | 31.38190 | 121.31555 | 2685 ft | 206 kts | 107° |
| 2026-05-04 19:22 | 31.37415 | 121.32861 | 2687 ft | 194 kts | 153° |
| 2026-05-04 19:22 | 31.36153 | 121.33071 | 2721 ft | 184 kts | 193° |
| 2026-05-04 19:22 | 31.34891 | 121.32800 | 2683 ft | 186 kts | 179° |
| 2026-05-04 19:23 | 31.33591 | 121.33009 | 2408 ft | 190 kts | 171° |
| 2026-05-04 19:23 | 31.32347 | 121.33054 | 2184 ft | 175 kts | 187° |
| 2026-05-04 19:23 | 31.31163 | 121.32970 | 1952 ft | 165 kts | 176° |
| 2026-05-04 19:23 | 31.30057 | 121.33104 | 1782 ft | 152 kts | 176° |
| 2026-05-04 19:24 | 31.29054 | 121.33139 | 1570 ft | 136 kts | 178° |
| 2026-05-04 19:24 | 31.28127 | 121.33179 | 1383 ft | 136 kts | 177° |
| 2026-05-04 19:24 | 31.27167 | 121.33228 | 1199 ft | 140 kts | 177° |
| 2026-05-04 19:24 | 31.26197 | 121.33281 | 1011 ft | 139 kts | 177° |
| 2026-05-04 19:25 | 31.25234 | 121.33334 | 830 ft | 138 kts | 176° |
| 2026-05-04 19:25 | 31.24279 | 121.33393 | 642 ft | 138 kts | 176° |
| 2026-05-04 19:25 | 31.23325 | 121.33444 | 456 ft | 137 kts | 178° |
| 2026-05-04 19:25 | 31.22371 | 121.33489 | 265 ft | 137 kts | 177° |
| 2026-05-04 19:26 | 31.21423 | 121.33545 | 106 ft | 135 kts | 177° |
| 2026-05-04 19:26 | 31.20500 | 121.33590 | 19 ft | 125 kts | 176° |
| 2026-05-04 19:26 | 31.19773 | 121.33630 | 18 ft | 84 kts | 177° |
| 2026-05-04 19:26 | 31.19431 | 121.33649 | 20 ft | 22 kts | 178° |
| 2026-05-04 19:27 | 31.19279 | 121.33656 | 19 ft | 22 kts | 178° |
| 2026-05-04 19:27 | 31.19130 | 121.33649 | 19 ft | 21 kts | 188° |
| 2026-05-04 19:27 | 31.18995 | 121.33592 | 17 ft | 20 kts | 205° |
| 2026-05-04 19:27 | 31.18940 | 121.33525 | 18 ft | 6 kts | 278° |
| 2026-05-04 19:28 | 31.18965 | 121.33488 | 18 ft | 6 kts | 336° |
| 2026-05-04 19:28 | 31.18993 | 121.33482 | 18 ft | 6 kts | 358° |
| 2026-05-04 19:28 | 31.19042 | 121.33480 | 18 ft | 8 kts | 357° |
| 2026-05-04 19:28 | 31.19107 | 121.33458 | 19 ft | 12 kts | 311° |
| 2026-05-04 19:29 | 31.19118 | 121.33411 | 18 ft | 0 kts | 269° |
| 2026-05-04 19:29 | 31.19118 | 121.33401 | 18 ft | 4 kts | 269° |
| 2026-05-04 19:30 | 31.19116 | 121.33339 | 17 ft | 11 kts | 267° |
| 2026-05-04 19:30 | 31.19111 | 121.33215 | 17 ft | 18 kts | 267° |
| 2026-05-04 19:30 | 31.19105 | 121.33063 | 18 ft | 19 kts | 267° |
| 2026-05-04 19:30 | 31.19103 | 121.33007 | 18 ft | 1 kts | 277° |
| 2026-05-04 19:31 | 31.19213 | 121.32990 | 18 ft | 26 kts | 18° |
| 2026-05-04 19:31 | 31.19393 | 121.32995 | 19 ft | 25 kts | 357° |
| 2026-05-04 19:31 | 31.19562 | 121.32986 | 18 ft | 23 kts | 357° |
| 2026-05-04 19:31 | 31.19706 | 121.32973 | 19 ft | 10 kts | 340° |
| 2026-05-04 19:32 | 31.19727 | 121.32901 | 18 ft | 10 kts | 262° |
| 2026-05-04 19:32 | 31.19723 | 121.32833 | 18 ft | 7 kts | 267° |
| 2026-05-04 19:32 | 31.19722 | 121.32776 | 18 ft | 7 kts | 274° |
| 2026-05-04 19:32 | 31.19759 | 121.32757 | 18 ft | 6 kts | 12° |
| 2026-05-04 19:33 | 31.19801 | 121.32757 | 18 ft | 6 kts | 356° |
| 2026-05-04 19:33 | 31.19807 | 121.32757 | 18 ft | 0 kts | 357° |
| 2026-05-04 19:33 | 31.19817 | 121.32757 | 18 ft | 0 kts | 357° |